Time;durP1;ratioP1;P1;durP2;ratioP2;P2;SDS_P1;SDS_P2;PMS_P1;PMS_P2;Temp;Humidity;BMP_temperature;BMP_pressure;BME280_temperature;BME280_humidity;BME280_pressure;Samples;Min_cycle;Max_cycle;Signal;HPM_P1;HPM_P2
2021/01/03 00:01:53;;;;;;;11.45;8.15;;;;;;;1.62;75.19;99992.56;5021371;28;20112;-87
2021/01/03 00:04:20;;;;;;;12.48;7.40;;;;;;;1.68;75.08;99995.06;5017594;28;20060;-87
2021/01/03 00:06:50;;;;;;;10.95;8.25;;;;;;;1.67;74.77;99990.75;5012743;28;20057;-87
2021/01/03 00:09:17;;;;;;;13.57;7.38;;;;;;;1.70;74.54;99989.84;5008996;28;20054;-86
2021/01/03 00:11:44;;;;;;;12.90;7.63;;;;;;;1.71;74.98;99986.34;5009694;28;20064;-86
2021/01/03 00:14:10;;;;;;;13.00;8.05;;;;;;;1.73;74.55;99995.00;5005558;28;20130;-87
2021/01/03 00:16:37;;;;;;;12.05;8.07;;;;;;;1.72;74.64;99990.66;5013263;28;20084;-86
2021/01/03 00:19:05;;;;;;;12.73;7.88;;;;;;;1.74;74.49;99987.13;5008702;28;20168;-84
2021/01/03 00:21:32;;;;;;;12.48;8.15;;;;;;;1.77;74.12;99989.69;5009878;28;20056;-85
2021/01/03 00:23:58;;;;;;;11.80;8.18;;;;;;;1.74;74.08;99989.72;5033726;28;20061;-85
2021/01/03 00:26:25;;;;;;;10.93;7.68;;;;;;;1.74;74.57;100000.16;5016295;28;20460;-85
2021/01/03 00:28:51;;;;;;;10.60;7.20;;;;;;;1.71;74.07;99991.56;5012045;28;20069;-86
2021/01/03 00:31:19;;;;;;;10.98;7.32;;;;;;;1.70;74.13;99989.84;5010564;28;20069;-84
2021/01/03 00:33:45;;;;;;;10.38;6.72;;;;;;;1.70;74.38;99998.53;5009028;28;20052;-86
2021/01/03 00:36:12;;;;;;;10.93;7.25;;;;;;;1.65;74.46;99996.88;5019213;28;20073;-85
2021/01/03 00:38:38;;;;;;;11.30;7.50;;;;;;;1.63;74.79;99994.28;5020204;28;20061;-85
2021/01/03 00:41:05;;;;;;;10.07;7.38;;;;;;;1.54;74.97;99986.63;5025517;28;20082;-86
2021/01/03 00:43:31;;;;;;;10.50;7.38;;;;;;;1.51;75.70;99981.44;5027213;28;20050;-86
2021/01/03 00:45:58;;;;;;;11.90;7.32;;;;;;;1.47;75.29;99986.72;5028706;28;20313;-85
2021/01/03 00:48:25;;;;;;;12.10;7.82;;;;;;;1.38;76.00;99977.31;5028275;28;20060;-85
2021/01/03 00:50:52;;;;;;;11.50;7.75;;;;;;;1.35;76.49;99990.41;5013453;28;20099;-85
2021/01/03 00:53:18;;;;;;;11.07;7.28;;;;;;;1.28;76.71;99986.16;5007120;28;20121;-85
2021/01/03 00:55:44;;;;;;;12.20;7.45;;;;;;;1.21;76.00;99988.03;5014643;28;20046;-85
2021/01/03 00:58:13;;;;;;;13.07;8.07;;;;;;;1.27;76.19;99987.91;5004507;28;20082;-86
2021/01/03 01:00:39;;;;;;;11.63;7.82;;;;;;;1.28;76.46;99988.78;5009851;28;20046;-85
2021/01/03 01:03:06;;;;;;;10.45;7.38;;;;;;;1.30;77.02;99984.41;5005630;28;20053;-85
2021/01/03 01:05:32;;;;;;;10.98;7.25;;;;;;;1.40;76.14;99991.22;5000960;28;20125;-85
2021/01/03 01:07:59;;;;;;;11.23;7.78;;;;;;;1.45;75.84;99984.16;5004711;28;20472;-85
2021/01/03 01:10:30;;;;;;;11.20;7.32;;;;;;;1.52;75.91;99977.94;5008199;28;20049;-85
2021/01/03 01:13:00;;;;;;;10.18;7.35;;;;;;;1.55;75.68;99977.91;5006171;28;20085;-85
2021/01/03 01:15:30;;;;;;;11.07;8.00;;;;;;;1.56;75.80;99976.16;5024655;28;20407;-86
2021/01/03 01:17:59;;;;;;;11.40;7.97;;;;;;;1.56;75.31;99974.41;5008971;28;20065;-86
2021/01/03 01:20:29;;;;;;;9.48;6.78;;;;;;;1.56;75.86;99974.41;5005072;28;20503;-85
2021/01/03 01:22:56;;;;;;;12.43;7.47;;;;;;;1.62;76.05;99973.44;5006703;28;20485;-86
2021/01/03 01:25:27;;;;;;;10.98;7.28;;;;;;;1.67;75.84;99980.28;5015431;28;20456;-85
2021/01/03 01:27:54;;;;;;;10.95;7.57;;;;;;;1.66;75.15;99969.88;4999168;28;20065;-85
2021/01/03 01:30:23;;;;;;;11.82;7.95;;;;;;;1.74;75.51;99976.66;5010968;28;20064;-86
2021/01/03 01:32:50;;;;;;;10.52;7.72;;;;;;;1.77;75.77;99980.97;5010583;28;20058;-85
2021/01/03 01:35:30;;;;;;;11.15;7.68;;;;;;;1.79;75.70;99974.00;5006249;28;20053;-85
2021/01/03 01:37:56;;;;;;;12.88;8.15;;;;;;;1.80;75.33;99967.03;5006013;28;20409;-85
2021/01/03 01:40:35;;;;;;;13.13;8.73;;;;;;;1.83;74.96;99972.19;5003345;28;20057;-85
2021/01/03 01:43:01;;;;;;;12.38;8.45;;;;;;;1.83;75.00;99978.28;5004054;28;20373;-85
2021/01/03 01:45:32;;;;;;;10.65;7.82;;;;;;;1.84;75.18;99974.78;5007380;28;20053;-85
2021/01/03 01:48:06;;;;;;;12.60;8.43;;;;;;;1.87;75.72;99985.16;5004244;28;20057;-85
2021/01/03 01:50:56;;;;;;;11.05;8.00;;;;;;;1.93;75.15;99974.59;4998211;28;20528;-85
2021/01/03 01:53:30;;;;;;;11.05;7.90;;;;;;;1.88;75.15;99978.19;5000102;28;20125;-85
2021/01/03 01:56:12;;;;;;;12.95;8.80;;;;;;;1.80;75.95;99964.41;5000254;28;20058;-85
2021/01/03 01:59:01;;;;;;;13.15;8.93;;;;;;;1.84;75.89;99971.31;5007434;28;20056;-86
2021/01/03 02:01:51;;;;;;;11.90;8.57;;;;;;;1.86;76.08;99979.97;5004957;28;20058;-85
2021/01/03 02:04:38;;;;;;;11.88;8.73;;;;;;;1.87;76.01;99973.88;5032549;23;20045;-81
2021/01/03 02:07:11;;;;;;;10.88;8.20;;;;;;;1.85;75.61;99970.41;5034889;28;20045;-83
2021/01/03 02:10:22;;;;;;;11.95;8.20;;;;;;;1.79;75.94;99957.47;5032507;28;20049;-81
2021/01/03 02:13:09;;;;;;;12.95;9.10;;;;;;;1.85;75.64;99954.75;5033468;28;20107;-81
2021/01/03 02:15:37;;;;;;;11.07;8.75;;;;;;;1.91;75.95;99959.84;5033956;28;20052;-80
2021/01/03 02:18:07;;;;;;;13.40;9.50;;;;;;;1.87;75.53;99952.97;5032740;28;20046;-81
2021/01/03 02:21:01;;;;;;;13.65;9.45;;;;;;;1.92;76.05;99956.34;5037970;28;20054;-82
2021/01/03 02:24:06;;;;;;;12.13;8.95;;;;;;;1.94;75.70;99951.97;5039098;28;20049;-83
2021/01/03 02:26:41;;;;;;;14.07;9.75;;;;;;;1.95;75.49;99954.53;5040702;28;20056;-81
2021/01/03 02:29:11;;;;;;;13.48;9.40;;;;;;;2.00;76.15;99952.72;5040068;28;20582;-83
2021/01/03 02:31:45;;;;;;;16.55;10.70;;;;;;;2.01;75.67;99951.81;5041686;28;20041;-81
2021/01/03 02:34:22;;;;;;;15.63;10.13;;;;;;;2.00;75.61;99946.63;5042412;28;20121;-82
2021/01/03 02:36:57;;;;;;;16.15;10.35;;;;;;;2.02;75.32;99950.06;5041822;28;20050;-81
2021/01/03 02:39:29;;;;;;;16.02;10.32;;;;;;;2.04;75.85;99945.69;5041486;28;20484;-82
2021/01/03 02:42:09;;;;;;;15.75;10.65;;;;;;;2.05;76.06;99948.25;5040082;28;20067;-81
2021/01/03 02:44:36;;;;;;;15.73;10.95;;;;;;;2.08;75.88;99952.53;5038684;28;20476;-81
2021/01/03 02:47:03;;;;;;;15.15;10.80;;;;;;;2.08;75.95;99942.09;5036015;28;20065;-81
2021/01/03 02:49:29;;;;;;;13.80;9.88;;;;;;;2.15;75.43;99953.31;5037665;28;20488;-81
2021/01/03 02:51:56;;;;;;;15.93;10.50;;;;;;;2.15;75.30;99948.06;5037167;28;20060;-82
2021/01/03 02:54:23;;;;;;;16.40;11.50;;;;;;;2.14;75.04;99957.66;5035892;28;20057;-82
2021/01/03 02:56:49;;;;;;;15.80;10.68;;;;;;;2.08;74.39;99948.19;5036707;28;20041;-82
2021/01/03 02:59:15;;;;;;;14.45;10.73;;;;;;;2.10;74.71;99948.16;5037296;28;20073;-81
2021/01/03 03:01:42;;;;;;;14.15;10.52;;;;;;;2.10;75.52;99945.56;5036536;28;20140;-82
2021/01/03 03:04:08;;;;;;;15.65;10.90;;;;;;;2.12;75.20;99941.16;5035949;28;20464;-82
2021/01/03 03:06:34;;;;;;;16.60;11.73;;;;;;;2.16;75.38;99942.81;5037304;28;20074;-81
2021/01/03 03:09:01;;;;;;;17.92;11.90;;;;;;;2.14;75.83;99938.53;5036512;28;20049;-82
2021/01/03 03:11:27;;;;;;;16.25;11.07;;;;;;;2.15;75.44;99943.72;5036563;28;20140;-82
2021/01/03 03:13:53;;;;;;;15.90;11.57;;;;;;;2.12;76.24;99938.53;5036891;28;20061;-81
2021/01/03 03:16:20;;;;;;;15.80;11.50;;;;;;;2.11;75.64;99935.06;5036921;28;20045;-80
2021/01/03 03:18:46;;;;;;;19.25;11.82;;;;;;;2.12;75.84;99933.31;5037180;28;20054;-82
2021/01/03 03:21:17;;;;;;;15.88;11.63;;;;;;;2.14;75.64;99935.91;5035184;28;20065;-81
2021/01/03 03:23:44;;;;;;;15.73;12.15;;;;;;;2.10;75.64;99927.25;5036439;28;20060;-81
2021/01/03 03:26:10;;;;;;;16.85;12.10;;;;;;;2.14;75.67;99926.31;5035183;28;20048;-81
2021/01/03 03:28:37;;;;;;;15.80;12.18;;;;;;;2.21;75.92;99932.25;5036003;28;20088;-80
2021/01/03 03:31:03;;;;;;;17.30;11.77;;;;;;;2.25;75.69;99933.94;5036164;28;20053;-81
2021/01/03 03:33:30;;;;;;;17.35;11.73;;;;;;;2.26;75.82;99935.66;5035053;28;20385;-80
2021/01/03 03:35:57;;;;;;;17.40;11.43;;;;;;;2.27;76.23;99930.41;5034734;28;20046;-83
2021/01/03 03:38:23;;;;;;;15.63;11.82;;;;;;;2.28;75.44;99926.03;5035771;28;20060;-81
2021/01/03 03:40:49;;;;;;;17.30;12.60;;;;;;;2.28;75.81;99921.66;5036434;28;20123;-81
2021/01/03 03:43:16;;;;;;;19.00;13.15;;;;;;;2.29;75.25;99926.00;5035479;28;20061;-80
2021/01/03 03:45:42;;;;;;;17.77;12.48;;;;;;;2.29;75.67;99930.38;5035400;28;20060;-81
2021/01/03 03:48:09;;;;;;;18.92;12.90;;;;;;;2.32;75.70;99925.94;5035696;28;20053;-81
2021/01/03 03:50:35;;;;;;;18.27;12.57;;;;;;;2.30;75.55;99922.50;5035423;28;20049;-81
2021/01/03 03:53:02;;;;;;;17.25;12.07;;;;;;;2.26;75.58;99915.63;5035670;28;20053;-81
2021/01/03 03:55:28;;;;;;;16.77;12.52;;;;;;;2.33;75.27;99930.28;5036656;28;20395;-82
2021/01/03 03:57:55;;;;;;;16.63;12.30;;;;;;;2.34;75.44;99924.16;5035255;28;20045;-80
2021/01/03 04:00:23;;;;;;;17.33;12.52;;;;;;;2.27;75.12;99911.25;5034621;28;20050;-80
2021/01/03 04:02:50;;;;;;;18.13;12.88;;;;;;;2.30;75.73;99913.81;5034141;28;20049;-81
2021/01/03 04:05:22;;;;;;;18.75;13.13;;;;;;;2.31;75.00;99921.63;5035477;28;20064;-82
2021/01/03 04:07:49;;;;;;;17.50;12.90;;;;;;;2.33;75.28;99916.34;5034392;28;20049;-81
2021/01/03 04:10:18;;;;;;;17.63;12.35;;;;;;;2.37;75.38;99929.31;5034516;28;20053;-81
2021/01/03 04:12:44;;;;;;;18.10;12.70;;;;;;;2.37;75.45;99915.38;5033629;28;20053;-82
2021/01/03 04:15:14;;;;;;;18.17;12.85;;;;;;;2.40;74.94;99908.34;5035220;28;20049;-81
2021/01/03 04:17:40;;;;;;;19.48;13.52;;;;;;;2.42;75.36;99906.56;5035332;28;20408;-82
2021/01/03 04:20:16;;;;;;;18.95;12.75;;;;;;;2.44;75.32;99907.38;5035270;28;20136;-81
2021/01/03 04:22:43;;;;;;;17.80;12.13;;;;;;;2.49;75.03;99903.81;5035553;28;20144;-81
2021/01/03 04:25:11;;;;;;;20.58;13.27;;;;;;;2.51;75.35;99905.50;5034833;28;20107;-82
2021/01/03 04:27:37;;;;;;;17.58;12.30;;;;;;;2.55;74.94;99903.66;5034859;28;20080;-81
2021/01/03 04:30:07;;;;;;;20.00;12.98;;;;;;;2.55;74.60;99904.53;5035056;28;20136;-82
2021/01/03 04:32:33;;;;;;;19.35;12.40;;;;;;;2.56;74.90;99908.00;5034004;28;20132;-82
2021/01/03 04:34:59;;;;;;;18.05;12.93;;;;;;;2.50;74.64;99902.94;5034507;28;20052;-82
2021/01/03 04:37:25;;;;;;;19.90;13.52;;;;;;;2.54;75.18;99907.16;5035126;28;20156;-81
2021/01/03 04:39:52;;;;;;;19.13;12.07;;;;;;;2.54;74.37;99905.41;5034981;28;20057;-81
2021/01/03 04:42:20;;;;;;;18.52;12.75;;;;;;;2.51;74.60;99909.88;5033630;28;20512;-82
2021/01/03 04:44:51;;;;;;;19.88;12.55;;;;;;;2.42;74.88;99906.56;5033473;28;20404;-81
2021/01/03 04:47:23;;;;;;;;;;;;;;;2.43;74.56;99907.41;5035094;28;20087;-80
2021/01/03 04:50:22;;;;;;;18.83;12.35;;;;;;;2.44;74.49;99910.00;5033271;28;19921;-81
2021/01/03 04:53:21;;;;;;;18.35;12.38;;;;;;;2.45;75.47;99914.34;5025203;28;20054;-80
2021/01/03 04:55:55;;;;;;;19.98;12.40;;;;;;;2.47;74.82;99909.06;5033883;28;20057;-81
2021/01/03 04:58:51;;;;;;;17.40;11.25;;;;;;;2.43;74.93;99904.81;5032827;28;20055;-81
2021/01/03 05:01:28;;;;;;;19.60;12.70;;;;;;;2.49;75.02;99903.81;5033495;28;20045;-81
2021/01/03 05:04:31;;;;;;;18.35;12.00;;;;;;;2.47;75.01;99894.25;5034609;28;20053;-82
2021/01/03 05:07:03;;;;;;;16.02;11.15;;;;;;;2.47;74.67;99907.31;5034556;28;20049;-84
2021/01/03 05:09:29;;;;;;;14.57;10.90;;;;;;;2.54;74.25;99900.19;5034376;28;20064;-83
2021/01/03 05:12:07;;;;;;;17.98;11.27;;;;;;;2.52;73.78;99898.53;5033808;28;20057;-82
2021/01/03 05:14:39;;;;;;;15.93;10.80;;;;;;;2.49;74.70;99899.47;5033775;28;20051;-83
2021/01/03 05:17:06;;;;;;;17.13;11.57;;;;;;;2.51;74.56;99899.44;5033072;28;20049;-85
2021/01/03 05:19:32;;;;;;;18.92;11.63;;;;;;;2.52;74.60;99896.75;5032825;28;20073;-82
2021/01/03 05:21:59;;;;;;;17.33;12.05;;;;;;;2.56;74.38;99902.78;5033607;28;20132;-81
2021/01/03 05:24:27;;;;;;;18.05;11.95;;;;;;;2.54;74.36;99894.97;5034600;28;20049;-82
2021/01/03 05:27:16;;;;;;;15.63;10.80;;;;;;;2.60;74.16;99901.81;5034035;28;20383;-82
2021/01/03 05:29:43;;;;;;;15.73;11.05;;;;;;;2.62;73.97;99903.50;5032993;28;20053;-82
2021/01/03 05:32:10;;;;;;;16.25;10.68;;;;;;;2.64;74.03;99898.25;5034529;28;20045;-82
2021/01/03 05:34:39;;;;;;;16.33;11.60;;;;;;;2.67;74.03;99899.06;5033171;28;20136;-82
2021/01/03 05:37:11;;;;;;;18.48;11.73;;;;;;;2.65;74.27;99892.13;5032926;28;20049;-81
2021/01/03 05:39:39;;;;;;;17.38;11.48;;;;;;;2.71;74.21;99900.69;5034026;28;20060;-81
2021/01/03 05:42:19;;;;;;;16.33;10.90;;;;;;;2.70;73.75;99901.56;5033118;28;20049;-81
2021/01/03 05:45:15;;;;;;;17.33;11.27;;;;;;;2.75;74.31;99898.84;5033706;28;20053;-81
2021/01/03 05:47:55;;;;;;;15.95;10.63;;;;;;;2.74;74.13;99902.38;5030447;28;20056;-81
2021/01/03 05:50:21;;;;;;;15.25;10.60;;;;;;;2.73;74.08;99898.88;5034779;28;20054;-80
2021/01/03 05:52:52;;;;;;;14.70;10.65;;;;;;;2.72;74.11;99896.31;5033817;28;20053;-80
2021/01/03 05:55:24;;;;;;;15.77;10.88;;;;;;;2.65;73.93;99889.53;5035854;28;20056;-81
2021/01/03 05:58:11;;;;;;;16.15;10.40;;;;;;;2.65;73.92;99892.13;5034949;28;20053;-81
2021/01/03 06:00:40;;;;;;;15.07;10.63;;;;;;;2.64;73.42;99899.13;5034609;28;20050;-81
2021/01/03 06:03:27;;;;;;;14.77;10.20;;;;;;;2.58;73.88;99899.25;5034298;28;20049;-83
2021/01/03 06:06:01;;;;;;;14.80;10.07;;;;;;;2.53;74.80;99902.84;5033214;28;20045;-83
2021/01/03 06:08:31;;;;;;;15.52;10.48;;;;;;;2.53;74.98;99903.69;5032867;28;20486;-82
2021/01/03 06:11:14;;;;;;;15.40;10.40;;;;;;;2.57;74.67;99904.50;5037540;28;20162;-81
2021/01/03 06:13:47;;;;;;;16.70;10.70;;;;;;;2.52;75.13;99906.38;5036625;28;20053;-83
2021/01/03 06:16:16;;;;;;;15.68;10.25;;;;;;;2.49;75.03;99899.47;5035920;28;20052;-81
2021/01/03 06:18:50;;;;;;;16.08;10.07;;;;;;;2.46;75.50;99900.38;5037838;28;20049;-81
2021/01/03 06:21:17;;;;;;;19.35;10.48;;;;;;;2.46;76.59;99895.16;5038133;28;20115;-80
2021/01/03 06:24:01;;;;;;;16.67;10.25;;;;;;;2.51;75.86;99904.66;5036984;28;20058;-82
2021/01/03 06:26:53;;;;;;;18.67;10.82;;;;;;;2.51;75.85;99896.81;5037016;28;20044;-82
2021/01/03 06:29:48;;;;;;;15.80;10.52;;;;;;;2.53;76.53;99905.44;5034419;28;20053;-80
2021/01/03 06:32:48;;;;;;;15.82;10.43;;;;;;;2.52;76.38;99903.75;5036668;28;20072;-81
2021/01/03 06:35:23;;;;;;;18.48;11.50;;;;;;;2.56;76.98;99905.38;5037235;28;20057;-84
2021/01/03 06:37:55;;;;;;;17.08;10.63;;;;;;;2.57;76.16;99904.50;5035919;28;20050;-81
2021/01/03 06:40:29;;;;;;;15.85;10.00;;;;;;;2.58;75.54;99896.63;5036319;28;20084;-81
2021/01/03 06:43:25;;;;;;;16.55;10.93;;;;;;;2.59;76.69;99903.56;5036295;28;20056;-82
2021/01/03 06:46:13;;;;;;;14.93;10.55;;;;;;;2.57;76.41;99888.81;5034472;28;20077;-83
2021/01/03 06:49:01;;;;;;;15.02;10.15;;;;;;;2.61;76.33;99903.53;5036072;28;20532;-81
2021/01/03 06:51:55;;;;;;;16.63;10.02;;;;;;;2.65;76.57;99908.69;5037416;28;20041;-80
2021/01/03 06:54:51;;;;;;;16.17;10.35;;;;;;;2.60;76.74;99900.06;5035631;28;20049;-82
2021/01/03 06:57:42;;;;;;;14.25;9.70;;;;;;;2.64;76.73;99901.72;5037320;28;20388;-80
2021/01/03 07:00:18;;;;;;;13.88;9.70;;;;;;;2.66;76.16;99901.69;5036742;28;20132;-81
2021/01/03 07:02:50;;;;;;;17.25;10.88;;;;;;;2.73;76.14;99904.13;5036458;28;20060;-82
2021/01/03 07:05:17;;;;;;;14.52;9.82;;;;;;;2.72;75.79;99902.41;5036397;28;20045;-82
2021/01/03 07:07:58;;;;;;;16.88;10.50;;;;;;;2.66;76.27;99892.09;5035179;28;20159;-81
2021/01/03 07:10:34;;;;;;;15.13;10.30;;;;;;;2.69;76.42;99896.38;5037769;28;20063;-82
2021/01/03 07:13:00;;;;;;;16.00;10.93;;;;;;;2.71;76.73;99894.59;5035518;28;20053;-82
2021/01/03 07:15:27;;;;;;;15.90;10.75;;;;;;;2.73;75.93;99895.41;5036118;28;20041;-82
2021/01/03 07:17:56;;;;;;;14.55;10.07;;;;;;;2.73;76.72;99895.41;5035200;28;20050;-81
2021/01/03 07:20:50;;;;;;;16.73;10.48;;;;;;;2.75;76.14;99896.25;5036888;28;20072;-81
2021/01/03 07:23:29;;;;;;;19.25;10.73;;;;;;;2.75;76.54;99897.09;5035147;28;20049;-81
2021/01/03 07:26:31;;;;;;;18.33;12.63;;;;;;;2.76;76.87;99890.13;5035863;28;20377;-81
2021/01/03 07:29:16;;;;;;;15.13;10.60;;;;;;;2.75;76.69;99897.09;5035727;28;20046;-80
2021/01/03 07:32:16;;;;;;;15.88;10.60;;;;;;;2.77;77.24;99902.28;5034731;28;20511;-83
2021/01/03 07:34:50;;;;;;;17.55;11.38;;;;;;;2.72;76.64;99884.09;5012892;28;20160;-84
2021/01/03 07:37:20;;;;;;;15.75;11.27;;;;;;;2.78;76.95;99890.94;5035542;28;20053;-81
2021/01/03 07:39:57;;;;;;;18.40;11.88;;;;;;;2.81;76.24;99893.50;5035694;28;20049;-81
2021/01/03 07:42:28;;;;;;;17.15;10.77;;;;;;;2.83;76.83;99891.72;5035560;28;20106;-80
2021/01/03 07:45:04;;;;;;;16.33;11.90;;;;;;;2.79;76.37;99888.31;5034329;28;20049;-80
2021/01/03 07:47:38;;;;;;;17.17;11.45;;;;;;;2.82;76.61;99884.75;5034816;28;20060;-82
2021/01/03 07:50:16;;;;;;;18.60;10.45;;;;;;;2.81;76.64;99888.28;5037108;28;20108;-81
2021/01/03 07:52:57;;;;;;;16.90;10.93;;;;;;;2.80;76.37;99886.53;5035315;28;20053;-81
2021/01/03 07:55:23;;;;;;;18.65;11.98;;;;;;;2.81;76.42;99885.66;5038535;28;20457;-80
2021/01/03 07:57:59;;;;;;;17.23;11.80;;;;;;;2.83;76.67;99885.63;5038510;28;20472;-82
2021/01/03 08:00:35;;;;;;;18.33;11.77;;;;;;;2.79;77.35;99884.81;5036464;28;20081;-81
2021/01/03 08:03:08;;;;;;;19.88;12.38;;;;;;;2.83;77.19;99889.09;5034890;28;20057;-83
2021/01/03 08:05:37;;;;;;;17.88;11.32;;;;;;;2.91;76.65;99889.75;5035579;28;20049;-83
2021/01/03 08:08:22;;;;;;;19.35;11.52;;;;;;;2.94;76.41;99894.06;5035773;28;20052;-82
2021/01/03 08:10:51;;;;;;;17.95;11.48;;;;;;;2.92;77.16;99894.09;5036320;28;20059;-82
2021/01/03 08:13:28;;;;;;;18.48;11.90;;;;;;;2.90;77.07;99895.88;5034258;28;20053;-81
2021/01/03 08:15:59;;;;;;;18.38;11.02;;;;;;;2.96;77.24;99892.28;5035870;28;20145;-82
2021/01/03 08:18:29;;;;;;;17.05;10.80;;;;;;;2.94;77.50;99899.28;5036653;28;20139;-83
2021/01/03 08:21:18;;;;;;;16.95;11.02;;;;;;;2.92;76.92;99899.31;5036229;28;20060;-83
2021/01/03 08:23:45;;;;;;;19.77;11.90;;;;;;;2.97;77.03;99901.84;5036336;28;20510;-82
2021/01/03 08:26:26;;;;;;;17.65;11.60;;;;;;;2.93;77.09;99893.19;5036298;28;20049;-82
2021/01/03 08:29:00;;;;;;;18.75;11.30;;;;;;;3.00;77.05;99897.38;5035753;28;20053;-83
2021/01/03 08:31:28;;;;;;;17.70;11.23;;;;;;;3.01;77.45;99901.72;5037378;28;20136;-83
2021/01/03 08:33:57;;;;;;;16.27;11.20;;;;;;;3.03;77.68;99893.81;5037673;28;20052;-82
2021/01/03 08:36:34;;;;;;;17.60;11.95;;;;;;;3.04;77.32;99891.19;5051351;28;20100;-83
2021/01/03 08:39:14;;;;;;;17.00;11.73;;;;;;;3.12;77.15;99904.09;5056127;28;20049;-85
2021/01/03 08:42:03;;;;;;;18.05;11.63;;;;;;;3.14;76.49;99889.22;5051099;28;20108;-84
2021/01/03 08:44:36;;;;;;;19.88;11.13;;;;;;;3.17;76.79;99902.19;5055337;28;20073;-84
2021/01/03 08:47:09;;;;;;;20.25;12.27;;;;;;;3.17;76.42;99897.81;5051876;28;20057;-81
2021/01/03 08:49:37;;;;;;;19.35;11.77;;;;;;;3.23;77.10;99903.81;5040907;28;20050;-82
2021/01/03 08:52:08;;;;;;;19.77;12.60;;;;;;;3.26;76.31;99901.97;5039202;28;20050;-81
2021/01/03 08:54:35;;;;;;;18.70;12.55;;;;;;;3.24;76.61;99905.53;5036635;28;20176;-82
2021/01/03 08:57:04;;;;;;;21.45;12.52;;;;;;;3.28;76.75;99904.56;5034166;28;20193;-83
2021/01/03 08:59:30;;;;;;;21.95;12.80;;;;;;;3.36;76.20;99913.06;5036061;28;20482;-81
2021/01/03 09:01:57;;;;;;;20.33;12.32;;;;;;;3.34;76.10;99912.25;5034720;28;20480;-82
2021/01/03 09:04:24;;;;;;;20.10;12.68;;;;;;;3.26;76.11;99909.81;5036090;28;20136;-81
2021/01/03 09:06:59;;;;;;;17.13;12.15;;;;;;;3.28;75.88;99910.66;5033048;28;20061;-82
2021/01/03 09:09:29;;;;;;;21.88;13.57;;;;;;;3.27;75.91;99908.06;5034235;28;20542;-82
2021/01/03 09:12:03;;;;;;;20.13;12.93;;;;;;;3.31;76.02;99917.53;5033896;28;20049;-82
2021/01/03 09:14:36;;;;;;;20.10;13.65;;;;;;;3.37;75.36;99925.25;5034153;28;20524;-83
2021/01/03 09:17:07;;;;;;;18.90;12.05;;;;;;;3.39;75.77;99923.47;5033132;28;20064;-82
2021/01/03 09:19:42;;;;;;;;;;;;;;;3.39;75.40;99934.78;5034545;28;20145;-82
2021/01/03 09:22:12;;;;;;;19.65;12.48;;;;;;;3.31;75.47;99920.16;5034802;28;20375;-83
2021/01/03 09:24:39;;;;;;;20.88;12.98;;;;;;;3.34;75.34;99930.56;5033979;28;20056;-82
2021/01/03 09:27:08;;;;;;;19.42;12.98;;;;;;;3.30;75.57;99928.94;5033997;28;20063;-82
2021/01/03 09:29:38;;;;;;;18.83;11.98;;;;;;;3.32;76.14;99927.13;5033264;28;20049;-83
2021/01/03 09:32:15;;;;;;;19.58;12.88;;;;;;;3.34;76.30;99933.16;5036908;28;20056;-83
2021/01/03 09:34:51;;;;;;;20.15;13.32;;;;;;;3.27;76.31;99942.09;5040705;28;20354;-84
2021/01/03 09:37:30;;;;;;;22.58;12.93;;;;;;;3.30;77.04;99939.41;5037365;28;20508;-82
2021/01/03 09:39:59;;;;;;;19.67;12.35;;;;;;;3.38;76.54;99938.31;5036059;28;20053;-82
2021/01/03 09:42:33;;;;;;;20.80;12.93;;;;;;;3.38;76.88;99934.81;5033747;28;20041;-82
2021/01/03 09:45:31;;;;;;;18.08;12.32;;;;;;;3.40;77.57;99940.88;5033429;28;20046;-84
2021/01/03 09:47:58;;;;;;;19.90;12.45;;;;;;;3.42;77.30;99939.94;5034543;28;20053;-83
2021/01/03 09:50:41;;;;;;;19.55;11.98;;;;;;;3.39;77.46;99932.16;5032871;28;20044;-82
2021/01/03 09:53:39;;;;;;;19.10;12.48;;;;;;;3.46;78.22;99940.75;5033706;28;20045;-81
2021/01/03 09:56:07;;;;;;;17.45;11.88;;;;;;;3.50;78.23;99948.47;5029375;28;20048;-81
2021/01/03 09:58:40;;;;;;;18.77;11.88;;;;;;;3.51;78.46;99944.09;5032458;28;20465;-83
2021/01/03 10:01:31;;;;;;;16.33;10.73;;;;;;;3.56;77.92;99939.59;5033190;28;20060;-81
2021/01/03 10:04:11;;;;;;;16.45;11.15;;;;;;;3.60;78.27;99943.88;5029465;28;20053;-82
2021/01/03 10:06:39;;;;;;;20.75;10.68;;;;;;;3.59;76.45;99947.38;5034057;28;20472;-82
2021/01/03 10:09:36;;;;;;;15.75;10.93;;;;;;;3.52;76.52;99941.44;5032868;28;20049;-82
2021/01/03 10:12:32;;;;;;;14.05;9.82;;;;;;;3.54;77.05;99938.78;5023551;28;20049;-83
2021/01/03 10:15:07;;;;;;;17.27;10.13;;;;;;;3.60;77.09;99937.78;5034029;28;20049;-83
2021/01/03 10:17:34;;;;;;;14.20;9.68;;;;;;;3.65;76.95;99935.88;5034365;28;20129;-84
2021/01/03 10:20:01;;;;;;;16.15;10.75;;;;;;;3.68;77.63;99936.66;5033302;28;20061;-83
2021/01/03 10:22:41;;;;;;;15.50;10.23;;;;;;;3.73;76.36;99934.78;5033321;28;20045;-84
2021/01/03 10:25:12;;;;;;;13.20;9.65;;;;;;;3.70;75.76;99934.88;5033606;28;20099;-84
2021/01/03 10:27:38;;;;;;;;;;;;;;;3.70;76.01;99934.88;5033447;28;20081;-83
2021/01/03 10:30:07;;;;;;;12.98;9.50;;;;;;;3.70;76.34;99936.63;5033457;28;19921;-85
2021/01/03 10:32:37;;;;;;;13.43;9.10;;;;;;;3.70;76.99;99944.47;5033782;28;20056;-82
2021/01/03 10:35:06;;;;;;;15.00;9.52;;;;;;;3.66;76.58;99940.22;5033618;28;20049;-83
2021/01/03 10:37:33;;;;;;;14.52;9.45;;;;;;;3.66;76.69;99943.69;5032899;28;20480;-82
2021/01/03 10:39:59;;;;;;;14.40;9.82;;;;;;;3.64;77.40;99948.09;5034975;28;20460;-85
2021/01/03 10:42:26;;;;;;;15.07;9.48;;;;;;;3.61;77.00;99944.72;5034097;28;20050;-83
2021/01/03 10:44:52;;;;;;;14.63;9.90;;;;;;;3.65;77.37;99949.81;5033075;28;20057;-84
2021/01/03 10:47:19;;;;;;;13.05;8.98;;;;;;;3.66;77.69;99948.06;5036341;28;20091;-83
2021/01/03 10:49:45;;;;;;;13.98;9.68;;;;;;;3.64;77.36;99947.25;5044074;28;20061;-85
2021/01/03 10:52:12;;;;;;;15.73;10.13;;;;;;;3.63;77.76;99949.00;5040583;28;20057;-87
2021/01/03 10:54:41;;;;;;;14.43;10.13;;;;;;;3.59;77.26;99950.00;5036914;28;20049;-83
2021/01/03 10:57:09;;;;;;;15.13;9.50;;;;;;;3.59;77.42;99947.38;5040038;28;20476;-84
2021/01/03 10:59:35;;;;;;;15.55;10.07;;;;;;;3.60;77.55;99938.63;5053800;28;20065;-85
2021/01/03 11:02:02;;;;;;;15.95;10.55;;;;;;;3.58;77.36;99939.56;5057133;28;20097;-87
2021/01/03 11:04:34;;;;;;;15.55;9.95;;;;;;;3.56;77.93;99941.34;5059537;28;20034;-85
2021/01/03 11:07:02;;;;;;;13.73;9.98;;;;;;;3.55;77.61;99940.50;5057108;28;20037;-87
2021/01/03 11:09:31;;;;;;;17.17;10.80;;;;;;;3.52;78.38;99940.56;5058895;28;20044;-85
2021/01/03 11:12:14;;;;;;;15.20;9.52;;;;;;;3.50;78.43;99930.13;5057899;28;20029;-83
2021/01/03 11:14:40;;;;;;;13.52;9.77;;;;;;;3.56;77.90;99943.97;5058947;28;20037;-85
2021/01/03 11:17:12;;;;;;;16.80;10.77;;;;;;;3.50;78.12;99942.34;5058841;28;20097;-87
2021/01/03 11:19:39;;;;;;;14.70;10.30;;;;;;;3.48;79.12;99939.78;5057782;28;20117;-84
2021/01/03 11:22:09;;;;;;;14.93;10.50;;;;;;;3.47;79.29;99931.97;5048798;28;20330;-85
2021/01/03 11:24:37;;;;;;;16.60;10.52;;;;;;;3.52;79.34;99930.97;5044112;28;20046;-83
2021/01/03 11:27:12;;;;;;;14.73;10.38;;;;;;;3.47;79.01;99930.22;5045783;28;20058;-82
2021/01/03 11:29:50;;;;;;;14.77;9.70;;;;;;;3.45;79.31;99928.56;5041511;28;20053;-84
2021/01/03 11:32:23;;;;;;;16.73;10.32;;;;;;;3.39;79.10;99924.31;5038938;28;20049;-83
2021/01/03 11:34:51;;;;;;;14.32;9.88;;;;;;;3.39;79.26;99928.69;5035960;28;20053;-84
2021/01/03 11:37:21;;;;;;;15.05;9.98;;;;;;;3.33;80.20;99921.84;5038001;28;20107;-85
2021/01/03 11:39:49;;;;;;;15.30;10.27;;;;;;;3.36;79.94;99918.28;5036622;28;20480;-82
2021/01/03 11:42:24;;;;;;;15.55;10.00;;;;;;;3.38;80.13;99932.22;5037458;28;20076;-80
2021/01/03 11:44:51;;;;;;;13.75;9.32;;;;;;;3.38;80.18;99926.97;5035870;28;20042;-81
2021/01/03 11:47:17;;;;;;;14.88;10.20;;;;;;;3.37;79.80;99927.88;5036346;28;20045;-80
2021/01/03 11:49:45;;;;;;;13.82;9.80;;;;;;;3.35;80.79;99921.81;5037055;28;20081;-83
2021/01/03 11:52:28;;;;;;;14.70;10.20;;;;;;;3.35;79.88;99921.81;5038118;28;20061;-82
2021/01/03 11:54:58;;;;;;;13.40;9.98;;;;;;;3.28;80.48;99917.66;5041937;28;20045;-81
2021/01/03 11:57:25;;;;;;;14.98;10.18;;;;;;;3.26;80.67;99922.06;5042958;28;20167;-83